sensor_id;sensor_type;location;lat;lon;timestamp;temperature;humidity
15819;DHT22;8010;53.986;12.106;2023-07-30T00:01:18;16.60;99.90
15819;DHT22;8010;53.986;12.106;2023-07-30T00:03:43;16.60;99.90
15819;DHT22;8010;53.986;12.106;2023-07-30T00:06:09;16.60;99.90
15819;DHT22;8010;53.986;12.106;2023-07-30T00:08:34;16.50;99.90
15819;DHT22;8010;53.986;12.106;2023-07-30T00:10:59;16.50;99.90
15819;DHT22;8010;53.986;12.106;2023-07-30T00:13:25;16.50;99.90
15819;DHT22;8010;53.986;12.106;2023-07-30T00:15:51;16.50;99.90
15819;DHT22;8010;53.986;12.106;2023-07-30T00:18:17;16.40;99.90
15819;DHT22;8010;53.986;12.106;2023-07-30T00:20:42;16.40;99.90
15819;DHT22;8010;53.986;12.106;2023-07-30T00:23:08;16.40;99.90
15819;DHT22;8010;53.986;12.106;2023-07-30T00:25:34;16.30;99.90
15819;DHT22;8010;53.986;12.106;2023-07-30T00:27:59;16.30;99.90
15819;DHT22;8010;53.986;12.106;2023-07-30T00:30:25;16.30;99.90
15819;DHT22;8010;53.986;12.106;2023-07-30T00:32:51;16.20;99.90
15819;DHT22;8010;53.986;12.106;2023-07-30T00:35:16;16.20;99.90
15819;DHT22;8010;53.986;12.106;2023-07-30T00:37:42;16.20;99.90
15819;DHT22;8010;53.986;12.106;2023-07-30T00:40:08;16.20;99.90
15819;DHT22;8010;53.986;12.106;2023-07-30T00:42:33;16.10;99.90
15819;DHT22;8010;53.986;12.106;2023-07-30T00:44:59;16.10;99.90
15819;DHT22;8010;53.986;12.106;2023-07-30T00:47:26;16.10;99.90
15819;DHT22;8010;53.986;12.106;2023-07-30T00:49:52;16.00;99.90
15819;DHT22;8010;53.986;12.106;2023-07-30T00:52:19;16.00;99.90
15819;DHT22;8010;53.986;12.106;2023-07-30T00:54:47;16.00;99.90
15819;DHT22;8010;53.986;12.106;2023-07-30T00:57:13;16.00;99.90
15819;DHT22;8010;53.986;12.106;2023-07-30T00:59:39;15.90;99.90
15819;DHT22;8010;53.986;12.106;2023-07-30T01:02:04;15.90;99.90
15819;DHT22;8010;53.986;12.106;2023-07-30T01:04:30;15.90;99.90
15819;DHT22;8010;53.986;12.106;2023-07-30T01:06:56;15.90;99.90
15819;DHT22;8010;53.986;12.106;2023-07-30T01:09:21;15.90;99.90
15819;DHT22;8010;53.986;12.106;2023-07-30T01:11:48;15.90;99.90
15819;DHT22;8010;53.986;12.106;2023-07-30T01:14:14;15.80;99.90
15819;DHT22;8010;53.986;12.106;2023-07-30T01:16:40;15.80;99.90
15819;DHT22;8010;53.986;12.106;2023-07-30T01:19:06;15.80;99.90
15819;DHT22;8010;53.986;12.106;2023-07-30T01:21:33;15.70;99.90
15819;DHT22;8010;53.986;12.106;2023-07-30T01:23:59;15.70;99.90
15819;DHT22;8010;53.986;12.106;2023-07-30T01:26:29;15.70;99.90
15819;DHT22;8010;53.986;12.106;2023-07-30T01:28:59;15.60;99.90
15819;DHT22;8010;53.986;12.106;2023-07-30T01:31:26;15.60;99.90
15819;DHT22;8010;53.986;12.106;2023-07-30T01:33:54;15.60;99.90
15819;DHT22;8010;53.986;12.106;2023-07-30T01:36:21;15.60;99.90
15819;DHT22;8010;53.986;12.106;2023-07-30T01:38:48;15.60;99.90
15819;DHT22;8010;53.986;12.106;2023-07-30T01:41:14;15.50;99.90
15819;DHT22;8010;53.986;12.106;2023-07-30T01:43:39;15.50;99.90
15819;DHT22;8010;53.986;12.106;2023-07-30T01:46:05;15.50;99.90
15819;DHT22;8010;53.986;12.106;2023-07-30T01:48:31;15.50;99.90
15819;DHT22;8010;53.986;12.106;2023-07-30T01:50:56;15.50;99.90
15819;DHT22;8010;53.986;12.106;2023-07-30T01:53:22;15.40;99.90
15819;DHT22;8010;53.986;12.106;2023-07-30T01:55:47;15.40;99.90
15819;DHT22;8010;53.986;12.106;2023-07-30T01:58:14;15.30;99.90
15819;DHT22;8010;53.986;12.106;2023-07-30T02:00:40;15.30;99.90
15819;DHT22;8010;53.986;12.106;2023-07-30T02:03:05;15.20;99.90
15819;DHT22;8010;53.986;12.106;2023-07-30T02:05:31;15.20;99.90
15819;DHT22;8010;53.986;12.106;2023-07-30T02:07:57;15.20;99.90
15819;DHT22;8010;53.986;12.106;2023-07-30T02:10:24;15.20;99.90
15819;DHT22;8010;53.986;12.106;2023-07-30T02:12:50;15.10;99.90
15819;DHT22;8010;53.986;12.106;2023-07-30T02:15:15;15.10;99.90
15819;DHT22;8010;53.986;12.106;2023-07-30T02:17:41;15.10;99.90
15819;DHT22;8010;53.986;12.106;2023-07-30T02:20:07;15.10;99.90
15819;DHT22;8010;53.986;12.106;2023-07-30T02:22:33;15.10;99.90
15819;DHT22;8010;53.986;12.106;2023-07-30T02:24:58;15.10;99.90
15819;DHT22;8010;53.986;12.106;2023-07-30T02:27:24;15.10;99.90
15819;DHT22;8010;53.986;12.106;2023-07-30T02:29:49;15.00;99.90
15819;DHT22;8010;53.986;12.106;2023-07-30T02:32:15;15.10;99.90
15819;DHT22;8010;53.986;12.106;2023-07-30T02:34:41;15.00;99.90
15819;DHT22;8010;53.986;12.106;2023-07-30T02:37:06;15.00;99.90
15819;DHT22;8010;53.986;12.106;2023-07-30T02:39:32;15.10;99.90
15819;DHT22;8010;53.986;12.106;2023-07-30T02:41:58;15.10;99.90
15819;DHT22;8010;53.986;12.106;2023-07-30T02:44:23;15.10;99.90
15819;DHT22;8010;53.986;12.106;2023-07-30T02:46:49;15.10;99.90
15819;DHT22;8010;53.986;12.106;2023-07-30T02:49:14;15.10;99.90
15819;DHT22;8010;53.986;12.106;2023-07-30T02:51:40;15.10;99.90
15819;DHT22;8010;53.986;12.106;2023-07-30T02:54:06;15.10;99.90
15819;DHT22;8010;53.986;12.106;2023-07-30T02:56:32;15.10;99.90
15819;DHT22;8010;53.986;12.106;2023-07-30T02:58:59;15.10;99.90
15819;DHT22;8010;53.986;12.106;2023-07-30T03:01:24;15.00;99.90
15819;DHT22;8010;53.986;12.106;2023-07-30T03:03:50;15.00;99.90
15819;DHT22;8010;53.986;12.106;2023-07-30T03:06:15;14.90;99.90
15819;DHT22;8010;53.986;12.106;2023-07-30T03:08:43;14.90;99.90
15819;DHT22;8010;53.986;12.106;2023-07-30T03:11:08;15.00;99.90
15819;DHT22;8010;53.986;12.106;2023-07-30T03:13:34;15.00;99.90
15819;DHT22;8010;53.986;12.106;2023-07-30T03:15:59;15.10;99.90
15819;DHT22;8010;53.986;12.106;2023-07-30T03:18:25;15.20;99.90
15819;DHT22;8010;53.986;12.106;2023-07-30T03:20:50;15.20;99.90
15819;DHT22;8010;53.986;12.106;2023-07-30T03:23:16;15.20;99.90
15819;DHT22;8010;53.986;12.106;2023-07-30T03:25:41;15.30;99.90
15819;DHT22;8010;53.986;12.106;2023-07-30T03:28:07;15.30;99.90
15819;DHT22;8010;53.986;12.106;2023-07-30T03:30:32;15.30;99.90
15819;DHT22;8010;53.986;12.106;2023-07-30T03:32:58;15.40;99.90
15819;DHT22;8010;53.986;12.106;2023-07-30T03:35:23;15.40;99.90
15819;DHT22;8010;53.986;12.106;2023-07-30T03:37:49;15.40;99.90
15819;DHT22;8010;53.986;12.106;2023-07-30T03:40:14;15.40;99.90
15819;DHT22;8010;53.986;12.106;2023-07-30T03:42:40;15.40;99.90
15819;DHT22;8010;53.986;12.106;2023-07-30T03:45:06;15.40;99.90
15819;DHT22;8010;53.986;12.106;2023-07-30T03:47:31;15.40;99.90
15819;DHT22;8010;53.986;12.106;2023-07-30T03:49:57;15.40;99.90
15819;DHT22;8010;53.986;12.106;2023-07-30T03:52:22;15.50;99.90
15819;DHT22;8010;53.986;12.106;2023-07-30T03:54:48;15.50;99.90
15819;DHT22;8010;53.986;12.106;2023-07-30T03:57:14;15.50;99.90
15819;DHT22;8010;53.986;12.106;2023-07-30T03:59:39;15.50;99.90
15819;DHT22;8010;53.986;12.106;2023-07-30T04:02:05;15.50;99.90
15819;DHT22;8010;53.986;12.106;2023-07-30T04:04:30;15.50;99.90
15819;DHT22;8010;53.986;12.106;2023-07-30T04:06:56;15.50;99.90
15819;DHT22;8010;53.986;12.106;2023-07-30T04:09:21;15.50;99.90
15819;DHT22;8010;53.986;12.106;2023-07-30T04:11:47;15.60;99.90
15819;DHT22;8010;53.986;12.106;2023-07-30T04:14:12;17.70;99.90
15819;DHT22;8010;53.986;12.106;2023-07-30T04:16:38;15.70;99.90
15819;DHT22;8010;53.986;12.106;2023-07-30T04:19:03;15.70;99.90
15819;DHT22;8010;53.986;12.106;2023-07-30T04:21:29;15.70;99.90
15819;DHT22;8010;53.986;12.106;2023-07-30T04:23:54;15.80;99.90
15819;DHT22;8010;53.986;12.106;2023-07-30T04:26:20;15.80;99.90
15819;DHT22;8010;53.986;12.106;2023-07-30T04:28:45;15.80;99.90
15819;DHT22;8010;53.986;12.106;2023-07-30T04:31:11;15.80;99.90
15819;DHT22;8010;53.986;12.106;2023-07-30T04:33:36;15.90;99.90
15819;DHT22;8010;53.986;12.106;2023-07-30T04:36:01;15.90;99.90
15819;DHT22;8010;53.986;12.106;2023-07-30T04:38:27;15.90;99.90
15819;DHT22;8010;53.986;12.106;2023-07-30T04:40:54;16.00;99.90
15819;DHT22;8010;53.986;12.106;2023-07-30T04:43:22;16.00;99.90
15819;DHT22;8010;53.986;12.106;2023-07-30T04:45:48;16.10;99.90
15819;DHT22;8010;53.986;12.106;2023-07-30T04:48:13;16.10;99.90
15819;DHT22;8010;53.986;12.106;2023-07-30T04:50:39;16.20;99.90
15819;DHT22;8010;53.986;12.106;2023-07-30T04:53:07;16.20;99.90
15819;DHT22;8010;53.986;12.106;2023-07-30T04:55:33;16.30;99.90
15819;DHT22;8010;53.986;12.106;2023-07-30T04:57:58;16.30;99.90
15819;DHT22;8010;53.986;12.106;2023-07-30T05:00:24;16.30;99.90
15819;DHT22;8010;53.986;12.106;2023-07-30T05:02:49;16.40;99.90
15819;DHT22;8010;53.986;12.106;2023-07-30T05:05:15;16.40;99.90
15819;DHT22;8010;53.986;12.106;2023-07-30T05:07:40;16.50;99.90
15819;DHT22;8010;53.986;12.106;2023-07-30T05:10:06;16.50;99.90
15819;DHT22;8010;53.986;12.106;2023-07-30T05:12:35;16.60;99.90
15819;DHT22;8010;53.986;12.106;2023-07-30T05:15:00;16.60;99.90
15819;DHT22;8010;53.986;12.106;2023-07-30T05:17:26;16.60;99.90
15819;DHT22;8010;53.986;12.106;2023-07-30T05:19:51;16.60;99.90
15819;DHT22;8010;53.986;12.106;2023-07-30T05:22:17;16.70;99.90
15819;DHT22;8010;53.986;12.106;2023-07-30T05:24:43;16.80;99.90
15819;DHT22;8010;53.986;12.106;2023-07-30T05:27:08;16.70;99.90
15819;DHT22;8010;53.986;12.106;2023-07-30T05:29:34;16.80;99.90
15819;DHT22;8010;53.986;12.106;2023-07-30T05:31:59;16.80;99.90
15819;DHT22;8010;53.986;12.106;2023-07-30T05:34:25;16.80;99.90
15819;DHT22;8010;53.986;12.106;2023-07-30T05:36:50;16.80;99.90
15819;DHT22;8010;53.986;12.106;2023-07-30T05:39:16;16.80;99.90
15819;DHT22;8010;53.986;12.106;2023-07-30T05:41:42;16.90;99.90
15819;DHT22;8010;53.986;12.106;2023-07-30T05:44:07;16.90;99.90
15819;DHT22;8010;53.986;12.106;2023-07-30T05:46:33;16.90;99.90
15819;DHT22;8010;53.986;12.106;2023-07-30T05:48:58;16.90;99.90
15819;DHT22;8010;53.986;12.106;2023-07-30T05:51:24;16.90;99.90
15819;DHT22;8010;53.986;12.106;2023-07-30T05:53:49;16.90;99.90
15819;DHT22;8010;53.986;12.106;2023-07-30T05:56:15;16.90;99.90
15819;DHT22;8010;53.986;12.106;2023-07-30T05:58:43;16.90;99.90
15819;DHT22;8010;53.986;12.106;2023-07-30T06:01:09;17.00;99.90
15819;DHT22;8010;53.986;12.106;2023-07-30T06:03:35;17.00;99.90
15819;DHT22;8010;53.986;12.106;2023-07-30T06:06:01;17.10;99.90
15819;DHT22;8010;53.986;12.106;2023-07-30T06:08:27;17.20;99.90
15819;DHT22;8010;53.986;12.106;2023-07-30T06:10:52;17.30;99.90
15819;DHT22;8010;53.986;12.106;2023-07-30T06:13:18;17.30;99.90
15819;DHT22;8010;53.986;12.106;2023-07-30T06:15:43;17.40;99.90
15819;DHT22;8010;53.986;12.106;2023-07-30T06:18:09;17.50;99.90
15819;DHT22;8010;53.986;12.106;2023-07-30T06:20:35;17.50;99.90
15819;DHT22;8010;53.986;12.106;2023-07-30T06:23:00;17.60;99.90
15819;DHT22;8010;53.986;12.106;2023-07-30T06:25:26;17.60;99.90
15819;DHT22;8010;53.986;12.106;2023-07-30T06:27:51;17.60;99.90
15819;DHT22;8010;53.986;12.106;2023-07-30T06:30:17;17.60;99.90
15819;DHT22;8010;53.986;12.106;2023-07-30T06:32:42;17.70;99.90
15819;DHT22;8010;53.986;12.106;2023-07-30T06:35:08;17.70;99.90
15819;DHT22;8010;53.986;12.106;2023-07-30T06:37:33;17.70;99.90
15819;DHT22;8010;53.986;12.106;2023-07-30T06:39:59;17.70;99.90
15819;DHT22;8010;53.986;12.106;2023-07-30T06:42:25;17.80;99.90
15819;DHT22;8010;53.986;12.106;2023-07-30T06:44:50;17.70;99.90
15819;DHT22;8010;53.986;12.106;2023-07-30T06:47:16;17.80;99.90
15819;DHT22;8010;53.986;12.106;2023-07-30T06:49:41;17.80;99.90
15819;DHT22;8010;53.986;12.106;2023-07-30T06:52:07;17.80;99.90
15819;DHT22;8010;53.986;12.106;2023-07-30T06:54:32;17.80;99.90
15819;DHT22;8010;53.986;12.106;2023-07-30T06:56:58;17.70;99.90
15819;DHT22;8010;53.986;12.106;2023-07-30T06:59:24;17.70;99.90
15819;DHT22;8010;53.986;12.106;2023-07-30T07:01:49;17.70;99.90
15819;DHT22;8010;53.986;12.106;2023-07-30T07:04:14;17.80;99.90
15819;DHT22;8010;53.986;12.106;2023-07-30T07:06:40;17.80;99.90
15819;DHT22;8010;53.986;12.106;2023-07-30T07:09:05;17.80;99.90
15819;DHT22;8010;53.986;12.106;2023-07-30T07:11:31;17.70;99.90
15819;DHT22;8010;53.986;12.106;2023-07-30T07:13:56;17.70;99.90
15819;DHT22;8010;53.986;12.106;2023-07-30T07:16:22;17.70;99.90
15819;DHT22;8010;53.986;12.106;2023-07-30T07:18:47;17.70;99.90
15819;DHT22;8010;53.986;12.106;2023-07-30T07:21:14;17.70;99.90
15819;DHT22;8010;53.986;12.106;2023-07-30T07:23:39;17.80;99.90
15819;DHT22;8010;53.986;12.106;2023-07-30T07:26:05;18.00;99.90
15819;DHT22;8010;53.986;12.106;2023-07-30T07:28:31;18.30;99.90
15819;DHT22;8010;53.986;12.106;2023-07-30T07:30:56;18.50;99.90
15819;DHT22;8010;53.986;12.106;2023-07-30T07:33:22;18.70;99.90
15819;DHT22;8010;53.986;12.106;2023-07-30T07:35:47;18.80;99.90
15819;DHT22;8010;53.986;12.106;2023-07-30T07:38:14;18.80;99.90
15819;DHT22;8010;53.986;12.106;2023-07-30T07:40:40;18.90;99.90
15819;DHT22;8010;53.986;12.106;2023-07-30T07:43:06;19.00;99.90
15819;DHT22;8010;53.986;12.106;2023-07-30T07:45:32;19.20;99.90
15819;DHT22;8010;53.986;12.106;2023-07-30T07:47:57;19.30;99.90
15819;DHT22;8010;53.986;12.106;2023-07-30T07:50:23;19.20;99.90
15819;DHT22;8010;53.986;12.106;2023-07-30T07:52:49;19.30;99.90
15819;DHT22;8010;53.986;12.106;2023-07-30T07:55:14;19.50;99.90
15819;DHT22;8010;53.986;12.106;2023-07-30T07:57:40;19.60;99.90
15819;DHT22;8010;53.986;12.106;2023-07-30T08:00:06;19.90;99.90
15819;DHT22;8010;53.986;12.106;2023-07-30T08:02:32;20.10;99.90
15819;DHT22;8010;53.986;12.106;2023-07-30T08:04:58;20.10;99.90
15819;DHT22;8010;53.986;12.106;2023-07-30T08:07:23;20.10;99.90
15819;DHT22;8010;53.986;12.106;2023-07-30T08:09:49;20.00;99.90
15819;DHT22;8010;53.986;12.106;2023-07-30T08:12:16;20.50;99.90
15819;DHT22;8010;53.986;12.106;2023-07-30T08:14:42;19.90;99.90
15819;DHT22;8010;53.986;12.106;2023-07-30T08:17:08;20.00;99.90
15819;DHT22;8010;53.986;12.106;2023-07-30T08:19:33;20.30;99.90
15819;DHT22;8010;53.986;12.106;2023-07-30T08:21:59;20.60;99.90
15819;DHT22;8010;53.986;12.106;2023-07-30T08:24:24;20.90;99.90
15819;DHT22;8010;53.986;12.106;2023-07-30T08:26:50;20.90;99.90
15819;DHT22;8010;53.986;12.106;2023-07-30T08:29:15;20.90;99.90
15819;DHT22;8010;53.986;12.106;2023-07-30T08:31:41;20.80;99.90
15819;DHT22;8010;53.986;12.106;2023-07-30T08:34:07;20.70;99.90
15819;DHT22;8010;53.986;12.106;2023-07-30T08:36:32;20.80;99.90
15819;DHT22;8010;53.986;12.106;2023-07-30T08:38:58;21.10;99.90
15819;DHT22;8010;53.986;12.106;2023-07-30T08:41:24;21.20;99.90
15819;DHT22;8010;53.986;12.106;2023-07-30T08:43:50;21.10;99.90
15819;DHT22;8010;53.986;12.106;2023-07-30T08:46:17;21.30;99.90
15819;DHT22;8010;53.986;12.106;2023-07-30T08:48:43;21.30;99.90
15819;DHT22;8010;53.986;12.106;2023-07-30T08:51:08;21.50;99.90
15819;DHT22;8010;53.986;12.106;2023-07-30T08:53:35;21.60;99.90
15819;DHT22;8010;53.986;12.106;2023-07-30T08:56:01;21.90;99.90
15819;DHT22;8010;53.986;12.106;2023-07-30T08:58:28;22.10;99.90
15819;DHT22;8010;53.986;12.106;2023-07-30T09:00:55;22.10;99.90
15819;DHT22;8010;53.986;12.106;2023-07-30T09:03:23;22.10;99.90
15819;DHT22;8010;53.986;12.106;2023-07-30T09:05:49;22.20;99.90
15819;DHT22;8010;53.986;12.106;2023-07-30T09:08:16;22.20;99.90
15819;DHT22;8010;53.986;12.106;2023-07-30T09:10:42;22.30;99.90
15819;DHT22;8010;53.986;12.106;2023-07-30T09:13:08;22.30;99.90
15819;DHT22;8010;53.986;12.106;2023-07-30T09:15:37;22.30;99.90
15819;DHT22;8010;53.986;12.106;2023-07-30T09:18:07;22.40;99.90
15819;DHT22;8010;53.986;12.106;2023-07-30T09:20:41;22.60;99.90
15819;DHT22;8010;53.986;12.106;2023-07-30T09:23:07;22.30;99.90
15819;DHT22;8010;53.986;12.106;2023-07-30T09:25:37;22.00;99.90
15819;DHT22;8010;53.986;12.106;2023-07-30T09:28:03;22.00;99.90
15819;DHT22;8010;53.986;12.106;2023-07-30T09:30:28;22.00;99.90
15819;DHT22;8010;53.986;12.106;2023-07-30T09:32:56;22.20;99.90
15819;DHT22;8010;53.986;12.106;2023-07-30T09:35:24;22.30;99.90
15819;DHT22;8010;53.986;12.106;2023-07-30T09:38:00;22.40;99.90
15819;DHT22;8010;53.986;12.106;2023-07-30T09:40:35;22.30;99.90
15819;DHT22;8010;53.986;12.106;2023-07-30T09:43:02;22.40;99.90
15819;DHT22;8010;53.986;12.106;2023-07-30T09:45:28;22.80;99.90
15819;DHT22;8010;53.986;12.106;2023-07-30T09:47:55;23.20;99.90
15819;DHT22;8010;53.986;12.106;2023-07-30T09:50:23;23.60;99.90
15819;DHT22;8010;53.986;12.106;2023-07-30T09:52:50;23.70;99.90
15819;DHT22;8010;53.986;12.106;2023-07-30T09:55:16;23.40;99.90
15819;DHT22;8010;53.986;12.106;2023-07-30T09:57:41;23.30;99.90
15819;DHT22;8010;53.986;12.106;2023-07-30T10:00:07;23.50;99.90
15819;DHT22;8010;53.986;12.106;2023-07-30T10:02:39;23.70;99.90
15819;DHT22;8010;53.986;12.106;2023-07-30T10:05:11;23.80;99.90
15819;DHT22;8010;53.986;12.106;2023-07-30T10:07:42;23.90;99.90
15819;DHT22;8010;53.986;12.106;2023-07-30T10:10:10;23.90;99.90
15819;DHT22;8010;53.986;12.106;2023-07-30T10:12:37;24.20;99.90
15819;DHT22;8010;53.986;12.106;2023-07-30T10:15:06;24.20;99.90
15819;DHT22;8010;53.986;12.106;2023-07-30T10:17:32;24.50;99.90
15819;DHT22;8010;53.986;12.106;2023-07-30T10:20:25;24.60;99.90
15819;DHT22;8010;53.986;12.106;2023-07-30T10:22:53;24.20;99.90
15819;DHT22;8010;53.986;12.106;2023-07-30T10:25:30;24.10;99.90
15819;DHT22;8010;53.986;12.106;2023-07-30T10:27:56;24.00;99.90
15819;DHT22;8010;53.986;12.106;2023-07-30T10:30:30;23.80;99.90
15819;DHT22;8010;53.986;12.106;2023-07-30T10:43:33;23.40;99.90
15819;DHT22;8010;53.986;12.106;2023-07-30T10:45:59;23.10;99.90
15819;DHT22;8010;53.986;12.106;2023-07-30T10:48:32;23.00;99.90
15819;DHT22;8010;53.986;12.106;2023-07-30T10:51:00;23.00;99.90
15819;DHT22;8010;53.986;12.106;2023-07-30T10:53:25;23.00;99.90
15819;DHT22;8010;53.986;12.106;2023-07-30T10:55:52;23.10;99.90
15819;DHT22;8010;53.986;12.106;2023-07-30T10:58:18;23.30;99.90
15819;DHT22;8010;53.986;12.106;2023-07-30T11:00:43;23.40;99.90
15819;DHT22;8010;53.986;12.106;2023-07-30T11:03:09;23.60;99.90
15819;DHT22;8010;53.986;12.106;2023-07-30T11:05:38;23.70;99.90
15819;DHT22;8010;53.986;12.106;2023-07-30T11:08:03;23.80;99.90
15819;DHT22;8010;53.986;12.106;2023-07-30T11:10:29;24.10;99.90
15819;DHT22;8010;53.986;12.106;2023-07-30T11:12:54;25.30;99.90
15819;DHT22;8010;53.986;12.106;2023-07-30T11:15:22;23.90;99.90
15819;DHT22;8010;53.986;12.106;2023-07-30T11:17:48;23.70;99.90
15819;DHT22;8010;53.986;12.106;2023-07-30T11:20:25;23.50;99.90
15819;DHT22;8010;53.986;12.106;2023-07-30T11:22:54;23.30;99.90
15819;DHT22;8010;53.986;12.106;2023-07-30T11:25:19;23.10;99.90
15819;DHT22;8010;53.986;12.106;2023-07-30T11:27:49;23.10;99.90
15819;DHT22;8010;53.986;12.106;2023-07-30T11:30:15;23.00;99.90
15819;DHT22;8010;53.986;12.106;2023-07-30T11:32:44;23.10;99.90
15819;DHT22;8010;53.986;12.106;2023-07-30T11:35:13;23.40;99.90
15819;DHT22;8010;53.986;12.106;2023-07-30T11:37:40;23.70;99.90
15819;DHT22;8010;53.986;12.106;2023-07-30T11:40:09;24.00;99.90
15819;DHT22;8010;53.986;12.106;2023-07-30T11:42:35;24.10;99.90
15819;DHT22;8010;53.986;12.106;2023-07-30T11:45:21;24.00;99.90
15819;DHT22;8010;53.986;12.106;2023-07-30T11:47:47;23.80;99.90
15819;DHT22;8010;53.986;12.106;2023-07-30T11:50:13;23.50;99.90
15819;DHT22;8010;53.986;12.106;2023-07-30T11:52:55;23.40;99.90
15819;DHT22;8010;53.986;12.106;2023-07-30T11:55:21;23.40;99.90
15819;DHT22;8010;53.986;12.106;2023-07-30T11:57:46;23.50;99.90
15819;DHT22;8010;53.986;12.106;2023-07-30T12:00:12;23.70;99.90
15819;DHT22;8010;53.986;12.106;2023-07-30T12:02:38;24.00;99.90
15819;DHT22;8010;53.986;12.106;2023-07-30T12:05:04;24.50;99.90
15819;DHT22;8010;53.986;12.106;2023-07-30T12:07:32;24.80;99.90
15819;DHT22;8010;53.986;12.106;2023-07-30T12:10:11;24.80;99.90
15819;DHT22;8010;53.986;12.106;2023-07-30T12:12:43;24.80;99.90
15819;DHT22;8010;53.986;12.106;2023-07-30T12:15:10;24.90;99.90
15819;DHT22;8010;53.986;12.106;2023-07-30T12:17:36;24.80;99.90
15819;DHT22;8010;53.986;12.106;2023-07-30T12:20:02;24.60;99.90
15819;DHT22;8010;53.986;12.106;2023-07-30T12:22:32;24.40;99.90
15819;DHT22;8010;53.986;12.106;2023-07-30T12:24:59;24.30;99.90
15819;DHT22;8010;53.986;12.106;2023-07-30T12:27:25;24.20;99.90
15819;DHT22;8010;53.986;12.106;2023-07-30T12:29:50;24.00;99.90
15819;DHT22;8010;53.986;12.106;2023-07-30T12:32:16;24.00;99.90
15819;DHT22;8010;53.986;12.106;2023-07-30T12:34:41;24.00;99.90
15819;DHT22;8010;53.986;12.106;2023-07-30T12:37:07;23.90;99.90
15819;DHT22;8010;53.986;12.106;2023-07-30T12:39:32;24.00;99.90
15819;DHT22;8010;53.986;12.106;2023-07-30T12:41:58;23.80;99.90
15819;DHT22;8010;53.986;12.106;2023-07-30T12:44:23;23.60;99.90
15819;DHT22;8010;53.986;12.106;2023-07-30T12:46:49;23.50;99.90
15819;DHT22;8010;53.986;12.106;2023-07-30T12:49:14;23.60;99.90
15819;DHT22;8010;53.986;12.106;2023-07-30T12:51:40;23.40;99.90
15819;DHT22;8010;53.986;12.106;2023-07-30T12:54:05;23.40;99.90
15819;DHT22;8010;53.986;12.106;2023-07-30T12:56:31;23.40;99.90
15819;DHT22;8010;53.986;12.106;2023-07-30T12:58:56;23.60;99.90
15819;DHT22;8010;53.986;12.106;2023-07-30T13:01:22;23.80;99.90
15819;DHT22;8010;53.986;12.106;2023-07-30T13:03:48;24.00;99.90
15819;DHT22;8010;53.986;12.106;2023-07-30T13:06:15;24.00;99.90
15819;DHT22;8010;53.986;12.106;2023-07-30T13:08:41;23.80;99.90
15819;DHT22;8010;53.986;12.106;2023-07-30T13:11:07;23.70;99.90
15819;DHT22;8010;53.986;12.106;2023-07-30T13:13:32;23.80;99.90
15819;DHT22;8010;53.986;12.106;2023-07-30T13:15:58;24.00;99.90
15819;DHT22;8010;53.986;12.106;2023-07-30T13:18:27;23.90;99.90
15819;DHT22;8010;53.986;12.106;2023-07-30T13:20:52;23.60;99.90
15819;DHT22;8010;53.986;12.106;2023-07-30T13:23:18;23.30;99.90
15819;DHT22;8010;53.986;12.106;2023-07-30T13:25:43;23.20;99.90
15819;DHT22;8010;53.986;12.106;2023-07-30T13:28:09;23.10;99.90
15819;DHT22;8010;53.986;12.106;2023-07-30T13:30:34;23.10;99.90
15819;DHT22;8010;53.986;12.106;2023-07-30T13:33:00;23.20;99.90
15819;DHT22;8010;53.986;12.106;2023-07-30T13:35:25;23.50;99.90
15819;DHT22;8010;53.986;12.106;2023-07-30T13:37:50;24.00;99.90
15819;DHT22;8010;53.986;12.106;2023-07-30T13:40:16;24.50;99.90
15819;DHT22;8010;53.986;12.106;2023-07-30T13:42:42;25.10;99.90
15819;DHT22;8010;53.986;12.106;2023-07-30T13:45:07;25.20;99.90
15819;DHT22;8010;53.986;12.106;2023-07-30T13:47:33;25.10;99.90
15819;DHT22;8010;53.986;12.106;2023-07-30T13:49:58;24.90;99.90
15819;DHT22;8010;53.986;12.106;2023-07-30T13:52:24;24.50;99.90
15819;DHT22;8010;53.986;12.106;2023-07-30T13:54:49;24.30;99.90
15819;DHT22;8010;53.986;12.106;2023-07-30T13:57:24;23.90;99.90
15819;DHT22;8010;53.986;12.106;2023-07-30T13:59:51;23.50;99.90
15819;DHT22;8010;53.986;12.106;2023-07-30T14:02:17;23.30;99.90
15819;DHT22;8010;53.986;12.106;2023-07-30T14:04:42;23.10;99.90
15819;DHT22;8010;53.986;12.106;2023-07-30T14:07:08;23.20;99.90
15819;DHT22;8010;53.986;12.106;2023-07-30T14:09:33;23.50;99.90
15819;DHT22;8010;53.986;12.106;2023-07-30T14:12:04;23.90;99.90
15819;DHT22;8010;53.986;12.106;2023-07-30T14:14:30;24.30;99.90
15819;DHT22;8010;53.986;12.106;2023-07-30T14:16:55;24.50;99.90
15819;DHT22;8010;53.986;12.106;2023-07-30T14:19:21;24.20;99.90
15819;DHT22;8010;53.986;12.106;2023-07-30T14:21:47;23.70;99.90
15819;DHT22;8010;53.986;12.106;2023-07-30T14:24:12;23.50;99.90
15819;DHT22;8010;53.986;12.106;2023-07-30T14:26:38;23.60;99.90
15819;DHT22;8010;53.986;12.106;2023-07-30T14:29:04;23.60;99.90
15819;DHT22;8010;53.986;12.106;2023-07-30T14:31:30;23.40;99.90
15819;DHT22;8010;53.986;12.106;2023-07-30T14:33:55;23.40;99.90
15819;DHT22;8010;53.986;12.106;2023-07-30T14:36:21;23.60;99.90
15819;DHT22;8010;53.986;12.106;2023-07-30T14:38:46;23.70;99.90
15819;DHT22;8010;53.986;12.106;2023-07-30T14:41:12;24.00;99.90
15819;DHT22;8010;53.986;12.106;2023-07-30T14:43:37;23.90;99.90
15819;DHT22;8010;53.986;12.106;2023-07-30T14:46:03;23.60;99.90
15819;DHT22;8010;53.986;12.106;2023-07-30T14:48:28;23.40;99.90
15819;DHT22;8010;53.986;12.106;2023-07-30T14:50:54;23.20;99.90
15819;DHT22;8010;53.986;12.106;2023-07-30T14:53:20;23.00;99.90
15819;DHT22;8010;53.986;12.106;2023-07-30T14:55:45;22.80;99.90
15819;DHT22;8010;53.986;12.106;2023-07-30T14:58:11;22.60;99.90
15819;DHT22;8010;53.986;12.106;2023-07-30T15:00:37;22.60;99.90
15819;DHT22;8010;53.986;12.106;2023-07-30T15:03:02;22.80;99.90
15819;DHT22;8010;53.986;12.106;2023-07-30T15:05:30;23.00;99.90
15819;DHT22;8010;53.986;12.106;2023-07-30T15:07:55;23.50;99.90
15819;DHT22;8010;53.986;12.106;2023-07-30T15:10:21;23.80;99.90
15819;DHT22;8010;53.986;12.106;2023-07-30T15:12:46;23.70;99.90
15819;DHT22;8010;53.986;12.106;2023-07-30T15:15:12;23.50;99.90
15819;DHT22;8010;53.986;12.106;2023-07-30T15:17:38;23.40;99.90
15819;DHT22;8010;53.986;12.106;2023-07-30T15:20:04;23.20;99.90
15819;DHT22;8010;53.986;12.106;2023-07-30T15:22:30;22.90;99.90
15819;DHT22;8010;53.986;12.106;2023-07-30T15:24:55;22.70;99.90
15819;DHT22;8010;53.986;12.106;2023-07-30T15:27:21;22.70;99.90
15819;DHT22;8010;53.986;12.106;2023-07-30T15:29:46;22.80;99.90
15819;DHT22;8010;53.986;12.106;2023-07-30T15:32:12;23.10;99.90
15819;DHT22;8010;53.986;12.106;2023-07-30T15:34:37;23.30;99.90